Time;durP1;ratioP1;P1;durP2;ratioP2;P2;SDS_P1;SDS_P2;PMS_P1;PMS_P2;Temp;Humidity;BMP_temperature;BMP_pressure;BME280_temperature;BME280_humidity;BME280_pressure;Samples;Min_cycle;Max_cycle;Signal;HPM_P1;HPM_P2
2022/06/25 00:00:58;;;;;;;2.53;1.50;;;20.60;71.70;;;;;;5039659;28;20017;-67
2022/06/25 00:03:23;;;;;;;2.30;1.90;;;20.60;71.80;;;;;;5041450;28;20026;-67
2022/06/25 00:05:49;;;;;;;1.90;1.70;;;20.60;71.80;;;;;;5042887;28;20061;-67
2022/06/25 00:08:15;;;;;;;1.90;1.70;;;20.60;71.90;;;;;;5045541;28;20021;-66
2022/06/25 00:10:41;;;;;;;1.88;1.70;;;20.60;71.90;;;;;;5044978;28;20037;-65
2022/06/25 00:13:07;;;;;;;2.78;2.10;;;20.50;71.90;;;;;;5045634;28;20017;-66
2022/06/25 00:15:32;;;;;;;2.20;2.00;;;20.50;72.10;;;;;;5045424;28;20502;-66
2022/06/25 00:17:58;;;;;;;1.70;1.60;;;20.50;72.40;;;;;;5035951;28;20041;-66
2022/06/25 00:20:25;;;;;;;1.77;1.67;;;20.50;72.30;;;;;;5029552;28;20025;-66
2022/06/25 00:22:50;;;;;;;2.70;1.90;;;20.50;72.40;;;;;;5040490;28;20029;-66
2022/06/25 00:25:16;;;;;;;2.47;1.70;;;20.50;72.40;;;;;;5037518;28;20029;-66
2022/06/25 00:27:42;;;;;;;2.58;2.10;;;20.50;72.30;;;;;;5039976;28;20065;-67
2022/06/25 00:30:08;;;;;;;2.85;2.28;;;20.40;72.50;;;;;;5041149;28;21149;-66
2022/06/25 00:32:34;;;;;;;2.08;1.83;;;20.40;72.80;;;;;;5045098;28;20103;-68
2022/06/25 00:35:00;;;;;;;3.08;2.15;;;20.40;72.80;;;;;;5040087;28;20024;-68
2022/06/25 00:37:25;;;;;;;2.45;2.25;;;20.30;73.20;;;;;;5045248;28;20487;-68
2022/06/25 00:39:51;;;;;;;2.22;2.03;;;20.30;73.30;;;;;;5040878;28;20034;-67
2022/06/25 00:42:17;;;;;;;2.83;2.63;;;20.30;73.40;;;;;;5037367;28;20025;-66
2022/06/25 00:44:44;;;;;;;4.85;2.33;;;20.20;73.70;;;;;;5041514;28;20037;-67
2022/06/25 00:47:14;;;;;;;2.63;1.92;;;20.10;73.90;;;;;;5042961;28;20017;-67
2022/06/25 00:49:41;;;;;;;4.32;2.17;;;20.10;73.90;;;;;;5038420;28;20112;-67
2022/06/25 00:52:12;;;;;;;2.05;1.85;;;20.10;73.80;;;;;;5035561;28;21057;-67
2022/06/25 00:54:41;;;;;;;2.10;1.90;;;20.10;74.00;;;;;;5042422;28;20546;-67
2022/06/25 00:57:08;;;;;;;2.05;1.60;;;20.10;74.10;;;;;;5046718;28;20507;-67
2022/06/25 00:59:41;;;;;;;3.47;1.90;;;20.00;74.10;;;;;;5049946;28;20488;-67
2022/06/25 01:02:07;;;;;;;2.60;2.00;;;20.00;74.30;;;;;;5041113;28;20029;-67
2022/06/25 01:04:33;;;;;;;2.53;1.90;;;19.90;74.50;;;;;;5040816;28;20024;-67
2022/06/25 01:06:59;;;;;;;2.63;2.13;;;19.90;74.80;;;;;;5039963;28;20430;-67
2022/06/25 01:09:25;;;;;;;2.05;1.85;;;19.90;74.90;;;;;;5048686;28;20020;-67
2022/06/25 01:11:51;;;;;;;1.70;1.60;;;19.90;74.70;;;;;;5047552;28;20063;-67
2022/06/25 01:14:17;;;;;;;2.97;1.90;;;19.90;74.80;;;;;;5045488;28;20021;-67
2022/06/25 01:16:42;;;;;;;3.38;2.00;;;19.90;74.70;;;;;;5046369;28;20029;-67
2022/06/25 01:19:10;;;;;;;2.20;2.00;;;19.90;74.80;;;;;;5044739;28;20484;-67
2022/06/25 01:21:37;;;;;;;2.17;1.90;;;19.90;75.10;;;;;;5039437;28;20484;-67
2022/06/25 01:24:04;;;;;;;2.17;1.92;;;19.80;75.10;;;;;;5045578;28;20063;-67
2022/06/25 01:26:36;;;;;;;2.33;1.60;;;19.80;75.20;;;;;;5039599;28;20425;-68
2022/06/25 01:29:03;;;;;;;2.60;1.60;;;19.80;75.10;;;;;;5037601;28;20467;-68
2022/06/25 01:31:29;;;;;;;3.72;2.10;;;19.80;75.00;;;;;;5047024;28;20068;-68
2022/06/25 01:33:55;;;;;;;1.73;1.63;;;19.80;75.20;;;;;;5045059;28;20021;-67
2022/06/25 01:36:21;;;;;;;1.92;1.40;;;19.80;75.10;;;;;;5042589;28;20029;-67
2022/06/25 01:38:46;;;;;;;2.15;1.95;;;19.80;75.10;;;;;;5040387;28;20578;-67
2022/06/25 01:41:12;;;;;;;4.03;2.10;;;19.80;75.00;;;;;;5044762;28;20033;-69
2022/06/25 01:43:37;;;;;;;2.33;1.70;;;19.70;75.20;;;;;;5048193;28;20395;-68
2022/06/25 01:46:04;;;;;;;2.35;1.77;;;19.70;75.20;;;;;;5043180;28;20396;-67
2022/06/25 01:48:30;;;;;;;2.42;1.95;;;19.70;75.20;;;;;;5045503;28;20056;-67
2022/06/25 01:50:55;;;;;;;2.20;1.80;;;19.70;75.30;;;;;;5051776;28;20534;-68
2022/06/25 01:53:21;;;;;;;3.30;1.80;;;19.70;75.30;;;;;;5042854;28;20036;-68
2022/06/25 01:55:46;;;;;;;2.95;2.22;;;19.70;75.40;;;;;;5046384;28;20120;-68
2022/06/25 01:58:12;;;;;;;2.85;2.08;;;19.70;75.40;;;;;;5049417;28;20021;-69
2022/06/25 02:00:38;;;;;;;2.47;2.03;;;19.70;75.50;;;;;;5064650;28;20024;-68
2022/06/25 02:03:03;;;;;;;3.42;2.15;;;19.60;75.60;;;;;;5054757;28;20457;-68
2022/06/25 02:08:16;;;;;;;3.33;1.80;;;19.60;75.80;;;;;;5038453;28;20117;-67
2022/06/25 02:10:42;;;;;;;2.28;1.75;;;19.60;75.80;;;;;;5043358;28;20049;-67
2022/06/25 02:13:08;;;;;;;5.30;2.15;;;19.60;75.60;;;;;;5045899;28;20023;-68
2022/06/25 02:15:34;;;;;;;2.22;1.90;;;19.60;75.60;;;;;;5045744;28;20093;-69
2022/06/25 02:18:00;;;;;;;3.95;2.00;;;19.50;75.80;;;;;;5040770;28;20025;-68
2022/06/25 02:20:26;;;;;;;2.50;1.70;;;19.60;75.90;;;;;;5042261;28;20514;-67
2022/06/25 02:22:51;;;;;;;1.92;1.70;;;19.50;75.80;;;;;;5040849;28;20056;-68
2022/06/25 02:25:17;;;;;;;2.50;2.00;;;19.60;75.80;;;;;;5041628;28;20025;-68
2022/06/25 02:27:43;;;;;;;1.90;1.73;;;19.50;75.80;;;;;;5040411;28;20057;-67
2022/06/25 02:30:09;;;;;;;2.22;1.63;;;19.50;75.70;;;;;;5048320;28;20056;-67
2022/06/25 02:32:35;;;;;;;2.25;1.90;;;19.50;75.70;;;;;;5048249;28;20030;-68
2022/06/25 02:35:01;;;;;;;2.70;2.50;;;19.50;75.70;;;;;;5041670;28;20032;-68
2022/06/25 02:37:26;;;;;;;2.53;1.70;;;19.50;76.00;;;;;;5045074;28;20515;-68
2022/06/25 02:39:52;;;;;;;2.20;2.00;;;19.40;76.00;;;;;;5062916;28;20036;-68
2022/06/25 02:42:17;;;;;;;1.65;1.52;;;19.40;76.00;;;;;;5035782;28;20029;-68
2022/06/25 02:44:43;;;;;;;2.05;1.90;;;19.40;75.90;;;;;;5039907;28;20044;-68
2022/06/25 02:47:08;;;;;;;3.45;2.20;;;19.40;76.00;;;;;;5040218;28;20537;-67
2022/06/25 02:49:34;;;;;;;2.20;1.83;;;19.40;76.10;;;;;;5038509;28;20025;-67
2022/06/25 02:52:00;;;;;;;2.08;1.85;;;19.40;76.10;;;;;;5044689;28;20083;-67
2022/06/25 02:54:25;;;;;;;2.22;1.90;;;19.40;76.10;;;;;;5045968;28;20095;-67
2022/06/25 02:59:41;;;;;;;1.95;1.80;;;19.40;76.00;;;;;;5040832;28;20044;-67
2022/06/25 03:02:07;;;;;;;2.15;1.90;;;19.40;75.90;;;;;;5042191;28;20025;-67
2022/06/25 03:04:32;;;;;;;3.67;2.47;;;19.40;75.90;;;;;;5043349;28;20498;-67
2022/06/25 03:06:58;;;;;;;3.70;2.70;;;19.30;76.10;;;;;;5048768;28;20607;-67
2022/06/25 03:09:24;;;;;;;3.13;2.05;;;19.30;76.30;;;;;;5044530;28;20056;-67
2022/06/25 03:11:50;;;;;;;2.33;2.03;;;19.30;76.20;;;;;;5047237;28;20017;-68
2022/06/25 03:14:16;;;;;;;2.47;1.90;;;19.20;76.00;;;;;;5046341;28;20029;-67
2022/06/25 03:16:43;;;;;;;2.72;2.00;;;19.20;76.00;;;;;;5039787;28;20376;-68
2022/06/25 03:19:09;;;;;;;3.75;2.80;;;19.30;76.00;;;;;;5033792;28;20514;-68
2022/06/25 03:21:36;;;;;;;4.03;2.40;;;19.20;76.10;;;;;;5044269;28;20090;-67
2022/06/25 03:24:03;;;;;;;2.85;2.00;;;19.20;76.10;;;;;;5043610;28;20128;-67
2022/06/25 03:26:28;;;;;;;3.85;2.20;;;19.20;76.10;;;;;;5041390;28;20029;-68
2022/06/25 03:28:55;;;;;;;2.80;2.30;;;19.10;76.10;;;;;;5040887;28;20017;-67
2022/06/25 03:31:21;;;;;;;2.40;1.85;;;19.20;76.10;;;;;;5041486;28;20487;-67
2022/06/25 03:33:47;;;;;;;2.30;2.00;;;19.20;76.00;;;;;;5037634;28;20025;-67
2022/06/25 03:36:13;;;;;;;4.15;2.35;;;19.10;76.00;;;;;;5042676;28;20446;-67
2022/06/25 03:38:38;;;;;;;3.28;1.73;;;19.10;76.00;;;;;;5042109;28;20101;-67
2022/06/25 03:43:49;;;;;;;3.25;2.40;;;19.10;76.00;;;;;;5046564;28;20086;-67
2022/06/25 03:46:14;;;;;;;2.47;2.15;;;19.10;76.20;;;;;;5043536;28;20782;-67
2022/06/25 03:48:40;;;;;;;2.80;2.20;;;19.00;76.30;;;;;;5036567;28;20113;-67
2022/06/25 03:51:06;;;;;;;2.83;2.17;;;19.00;76.40;;;;;;5038805;28;20021;-68
2022/06/25 03:53:31;;;;;;;3.10;2.30;;;18.90;76.30;;;;;;5031486;28;20035;-67
2022/06/25 03:55:58;;;;;;;2.47;2.10;;;18.90;76.30;;;;;;5037151;28;20387;-67
2022/06/25 03:58:23;;;;;;;2.03;1.52;;;19.00;76.30;;;;;;5034438;28;20039;-68
2022/06/25 04:00:49;;;;;;;2.85;1.80;;;19.00;76.20;;;;;;5042069;28;20041;-68
2022/06/25 04:03:15;;;;;;;2.38;1.77;;;19.00;76.10;;;;;;5038976;28;20048;-68
2022/06/25 04:05:40;;;;;;;2.30;2.00;;;19.00;75.90;;;;;;5041806;28;20048;-67
2022/06/25 04:08:06;;;;;;;2.38;1.73;;;19.10;75.80;;;;;;5034424;28;20467;-67
2022/06/25 04:10:31;;;;;;;3.40;1.90;;;19.10;75.80;;;;;;5043026;28;20029;-67
2022/06/25 04:12:57;;;;;;;1.92;1.73;;;19.10;75.60;;;;;;5043816;28;20029;-67
2022/06/25 04:15:22;;;;;;;2.45;1.75;;;19.10;75.60;;;;;;5045973;28;20025;-67
2022/06/25 04:17:48;;;;;;;2.75;1.63;;;19.10;75.50;;;;;;5046793;28;20147;-68
2022/06/25 04:20:13;;;;;;;2.45;1.90;;;19.20;75.40;;;;;;5041010;28;20028;-68
2022/06/25 04:22:39;;;;;;;2.58;1.60;;;19.20;75.30;;;;;;5049525;28;20040;-68
2022/06/25 04:25:05;;;;;;;1.40;1.30;;;19.20;75.30;;;;;;5046968;28;21526;-68
2022/06/25 04:30:14;;;;;;;3.17;1.95;;;19.30;75.00;;;;;;5036224;28;20044;-68
2022/06/25 04:32:40;;;;;;;3.45;2.53;;;19.30;75.10;;;;;;5046180;28;20583;-67
2022/06/25 04:35:06;;;;;;;2.60;2.00;;;19.20;75.20;;;;;;5043922;28;20033;-67
2022/06/25 04:37:32;;;;;;;3.05;2.40;;;19.30;75.20;;;;;;5047155;28;20108;-67
2022/06/25 04:39:57;;;;;;;3.50;2.10;;;19.30;75.10;;;;;;5044623;28;20096;-67
2022/06/25 04:42:23;;;;;;;2.55;1.70;;;19.30;75.00;;;;;;5046302;28;20032;-67
2022/06/25 04:44:48;;;;;;;3.28;1.80;;;19.30;74.80;;;;;;5048547;28;20040;-67
2022/06/25 04:47:14;;;;;;;2.80;1.80;;;19.40;74.60;;;;;;5053078;28;20028;-67
2022/06/25 04:49:39;;;;;;;3.33;2.28;;;19.40;74.60;;;;;;5042919;28;20101;-67
2022/06/25 04:52:05;;;;;;;4.38;2.47;;;19.50;74.60;;;;;;5046157;28;20443;-67
2022/06/25 04:54:30;;;;;;;2.35;2.00;;;19.50;74.50;;;;;;5037972;28;20047;-68
2022/06/25 04:56:56;;;;;;;4.38;2.65;;;19.80;74.00;;;;;;5048789;28;20402;-68
2022/06/25 04:59:22;;;;;;;5.07;2.40;;;19.90;73.50;;;;;;5046491;28;20025;-68
2022/06/25 05:01:47;;;;;;;2.85;2.10;;;20.10;73.10;;;;;;5041629;28;20487;-68
2022/06/25 05:04:13;;;;;;;4.88;3.20;;;20.40;72.40;;;;;;5044435;28;20671;-68
2022/06/25 05:06:38;;;;;;;4.38;2.80;;;20.90;71.10;;;;;;5045517;28;20496;-68
2022/06/25 05:09:04;;;;;;;4.93;2.97;;;21.10;70.10;;;;;;5043421;28;20038;-68
2022/06/25 05:11:29;;;;;;;2.58;2.38;;;21.30;69.40;;;;;;5045039;28;20021;-68
2022/06/25 05:13:55;;;;;;;6.43;5.30;;;21.70;68.50;;;;;;5038279;28;20059;-69
2022/06/25 05:16:20;;;;;;;4.20;3.17;;;21.80;67.50;;;;;;5043810;28;20032;-67
2022/06/25 05:18:47;;;;;;;3.20;2.40;;;21.90;67.50;;;;;;5052250;28;20025;-67
2022/06/25 05:21:13;;;;;;;2.60;2.22;;;22.20;67.10;;;;;;5039481;28;20014;-67
2022/06/25 05:23:39;;;;;;;4.65;1.83;;;22.40;66.50;;;;;;5036986;28;20029;-66
2022/06/25 05:26:05;;;;;;;2.42;1.73;;;22.70;66.20;;;;;;5047447;28;20040;-67
2022/06/25 05:28:31;;;;;;;2.60;2.20;;;23.00;65.60;;;;;;5032068;28;20025;-67
2022/06/25 05:30:56;;;;;;;3.00;2.00;;;23.00;64.90;;;;;;5041871;28;20464;-67
2022/06/25 05:33:22;;;;;;;2.90;2.33;;;23.20;65.00;;;;;;5044363;28;20017;-67
2022/06/25 05:35:48;;;;;;;2.25;1.92;;;23.30;64.50;;;;;;5046790;28;20171;-67
2022/06/25 05:38:13;;;;;;;4.38;2.88;;;23.40;64.30;;;;;;5034093;28;20030;-67
2022/06/25 05:40:39;;;;;;;2.47;2.13;;;23.40;64.00;;;;;;5043359;28;20391;-67
2022/06/25 05:43:05;;;;;;;5.35;2.88;;;23.40;64.20;;;;;;5048689;28;20035;-67
2022/06/25 05:45:31;;;;;;;3.38;2.50;;;23.20;64.30;;;;;;5047622;28;20032;-67
2022/06/25 05:47:57;;;;;;;4.22;2.40;;;22.90;64.60;;;;;;5053917;28;20495;-67
2022/06/25 05:50:23;;;;;;;2.95;2.30;;;22.70;65.20;;;;;;5043221;28;20106;-66
2022/06/25 05:52:49;;;;;;;2.92;1.88;;;22.50;65.30;;;;;;5044091;28;20009;-67
2022/06/25 05:55:14;;;;;;;2.28;1.90;;;22.40;65.70;;;;;;5040048;28;20025;-66
2022/06/25 05:57:40;;;;;;;6.43;2.53;;;22.30;66.20;;;;;;5044294;28;20090;-66
2022/06/25 06:00:08;;;;;;;2.75;1.75;;;22.20;66.30;;;;;;5042119;28;20033;-68
2022/06/25 06:02:33;;;;;;;2.40;1.77;;;22.20;66.50;;;;;;5046137;28;20143;-67
2022/06/25 06:04:59;;;;;;;4.90;2.72;;;22.10;66.50;;;;;;5042639;28;20055;-68
2022/06/25 06:07:25;;;;;;;2.95;2.10;;;22.10;66.50;;;;;;5043062;28;20021;-67
2022/06/25 06:09:50;;;;;;;4.28;2.00;;;22.20;67.20;;;;;;5038822;28;20319;-68
2022/06/25 06:12:16;;;;;;;2.78;2.17;;;22.20;66.40;;;;;;5042134;28;20025;-68
2022/06/25 06:14:42;;;;;;;3.33;2.00;;;22.30;66.30;;;;;;5041978;28;20472;-68
2022/06/25 06:17:08;;;;;;;3.60;2.20;;;22.40;66.30;;;;;;5054274;28;20053;-68
2022/06/25 06:19:33;;;;;;;4.40;2.10;;;22.50;65.90;;;;;;5040221;28;20025;-68
2022/06/25 06:21:59;;;;;;;4.32;2.10;;;22.50;65.40;;;;;;5041720;28;20494;-68
2022/06/25 06:24:24;;;;;;;1.95;1.77;;;22.60;65.60;;;;;;5045556;28;20036;-67
2022/06/25 06:26:50;;;;;;;2.30;1.92;;;22.80;65.30;;;;;;5042963;28;20033;-68
2022/06/25 06:29:17;;;;;;;3.25;1.63;;;22.90;64.80;;;;;;5050194;28;20049;-68
2022/06/25 06:31:43;;;;;;;4.95;2.30;;;23.10;64.50;;;;;;5048909;28;20081;-67
2022/06/25 06:34:08;;;;;;;4.20;1.80;;;23.30;64.10;;;;;;5040788;28;20029;-67
2022/06/25 06:36:34;;;;;;;4.97;2.40;;;23.10;63.40;;;;;;5044488;28;20071;-67
2022/06/25 06:39:00;;;;;;;3.42;1.80;;;23.20;63.50;;;;;;5046716;28;20035;-69
2022/06/25 06:41:25;;;;;;;2.83;2.22;;;23.40;63.40;;;;;;5052045;28;20074;-68
2022/06/25 06:43:51;;;;;;;2.00;1.80;;;23.60;62.70;;;;;;5039966;28;20404;-70
2022/06/25 06:46:16;;;;;;;2.08;1.67;;;23.60;62.40;;;;;;5045162;28;20059;-67
2022/06/25 06:48:42;;;;;;;1.90;1.50;;;23.60;62.40;;;;;;5053329;28;20020;-67
2022/06/25 06:51:08;;;;;;;2.83;2.00;;;23.70;62.50;;;;;;5051483;28;20024;-68
2022/06/25 06:53:34;;;;;;;3.88;1.80;;;23.70;62.00;;;;;;5047469;28;20368;-67
2022/06/25 06:56:00;;;;;;;2.95;2.00;;;23.90;61.90;;;;;;5046221;28;20036;-68
2022/06/25 06:58:27;;;;;;;2.35;1.88;;;24.00;61.20;;;;;;5043650;28;20017;-67
2022/06/25 07:00:52;;;;;;;3.00;2.15;;;23.90;61.10;;;;;;5044483;28;20043;-69
2022/06/25 07:03:18;;;;;;;3.13;2.03;;;23.90;60.90;;;;;;5042125;28;20032;-67
2022/06/25 07:05:43;;;;;;;3.05;1.75;;;23.80;61.20;;;;;;5041735;28;20033;-68
2022/06/25 07:08:09;;;;;;;4.32;2.10;;;23.80;61.30;;;;;;5046395;28;20030;-67
2022/06/25 07:10:34;;;;;;;2.22;1.58;;;23.50;61.40;;;;;;5031203;28;20034;-66
2022/06/25 07:13:00;;;;;;;2.17;1.50;;;23.50;61.50;;;;;;5040404;28;20022;-66
2022/06/25 07:15:25;;;;;;;3.72;1.48;;;23.60;61.50;;;;;;5042475;28;20468;-66
2022/06/25 07:17:51;;;;;;;2.45;1.33;;;23.80;61.30;;;;;;5038092;28;20183;-68
2022/06/25 07:20:16;;;;;;;2.38;1.45;;;23.90;61.30;;;;;;5048898;28;20110;-68
2022/06/25 07:22:42;;;;;;;1.55;1.45;;;23.90;61.10;;;;;;5046392;28;20034;-67
2022/06/25 07:25:08;;;;;;;1.67;0.90;;;24.10;61.00;;;;;;5044898;28;20450;-68
2022/06/25 07:27:34;;;;;;;1.50;1.30;;;24.30;60.80;;;;;;5046511;28;20060;-68
2022/06/25 07:29:59;;;;;;;1.95;1.38;;;24.30;60.30;;;;;;5050247;28;20045;-68
2022/06/25 07:32:25;;;;;;;1.55;1.38;;;24.20;60.20;;;;;;5046031;28;20029;-67
2022/06/25 07:34:50;;;;;;;1.50;1.27;;;24.20;60.50;;;;;;5042840;28;20083;-67
2022/06/25 07:37:16;;;;;;;2.65;1.20;;;24.30;60.00;;;;;;5042506;28;20388;-66
2022/06/25 07:39:42;;;;;;;1.30;1.20;;;24.40;60.70;;;;;;5040988;28;20438;-67
2022/06/25 07:42:08;;;;;;;2.08;1.42;;;24.60;60.00;;;;;;5044961;28;20021;-69
2022/06/25 07:44:34;;;;;;;4.65;2.10;;;24.70;59.90;;;;;;5042023;28;20021;-68
2022/06/25 07:46:59;;;;;;;2.85;1.55;;;24.70;59.40;;;;;;5038227;28;20032;-68
2022/06/25 07:49:25;;;;;;;3.67;1.65;;;24.80;59.50;;;;;;5039425;28;20021;-68
2022/06/25 07:51:56;;;;;;;3.35;2.00;;;24.70;59.20;;;;;;5039844;28;20064;-66
2022/06/25 07:54:24;;;;;;;2.28;1.70;;;24.60;58.80;;;;;;5039809;28;20383;-68
2022/06/25 07:56:50;;;;;;;2.05;1.25;;;24.40;59.20;;;;;;5038585;28;20107;-67
2022/06/25 07:59:15;;;;;;;1.73;1.27;;;24.30;59.60;;;;;;5039189;28;20124;-67
2022/06/25 08:01:41;;;;;;;1.67;1.13;;;24.20;59.70;;;;;;5041154;28;20083;-67
2022/06/25 08:04:06;;;;;;;2.15;1.30;;;24.20;59.90;;;;;;5044238;28;20028;-68
2022/06/25 08:06:34;;;;;;;2.03;1.42;;;24.30;59.80;;;;;;5040764;28;20531;-68
2022/06/25 08:09:01;;;;;;;1.65;1.30;;;24.30;59.70;;;;;;5041791;28;20036;-67
2022/06/25 08:11:27;;;;;;;3.42;1.40;;;24.40;59.60;;;;;;5042541;28;20100;-68
2022/06/25 08:13:52;;;;;;;3.00;1.63;;;24.50;59.50;;;;;;5041259;28;20116;-67
2022/06/25 08:16:18;;;;;;;1.60;1.00;;;24.60;58.50;;;;;;5038442;28;20028;-67
2022/06/25 08:18:47;;;;;;;1.67;1.20;;;24.70;58.70;;;;;;5045224;28;20025;-68
2022/06/25 08:21:13;;;;;;;2.55;1.20;;;25.00;58.20;;;;;;5044856;28;20054;-67
2022/06/25 08:23:39;;;;;;;1.38;0.93;;;24.90;57.20;;;;;;5050343;28;20504;-68
2022/06/25 08:26:04;;;;;;;1.40;0.93;;;24.90;57.90;;;;;;5040838;28;20036;-67
2022/06/25 08:28:30;;;;;;;1.45;1.20;;;25.10;57.40;;;;;;5049964;28;20127;-67
2022/06/25 08:30:55;;;;;;;0.90;0.70;;;25.20;57.00;;;;;;5042530;28;20051;-69
2022/06/25 08:33:21;;;;;;;0.88;0.70;;;25.10;56.90;;;;;;5045835;28;20469;-68
2022/06/25 08:35:47;;;;;;;1.52;1.00;;;25.30;57.10;;;;;;5048965;28;20033;-67
2022/06/25 08:38:12;;;;;;;1.58;0.80;;;25.20;56.50;;;;;;5045596;28;20070;-67
2022/06/25 08:40:38;;;;;;;1.42;0.98;;;25.10;57.00;;;;;;5044726;28;20492;-69
2022/06/25 08:43:05;;;;;;;1.75;1.00;;;25.10;56.50;;;;;;5048897;28;20035;-68
2022/06/25 08:45:30;;;;;;;1.45;0.70;;;25.00;56.50;;;;;;5047191;28;20029;-68
2022/06/25 08:47:59;;;;;;;0.98;0.65;;;25.10;56.90;;;;;;5043689;28;20434;-67
2022/06/25 08:50:24;;;;;;;1.02;0.80;;;25.20;56.80;;;;;;5051378;28;20032;-69
2022/06/25 08:52:52;;;;;;;1.10;1.00;;;25.40;56.30;;;;;;5043485;28;20025;-69
2022/06/25 08:55:23;;;;;;;1.33;0.95;;;25.30;55.80;;;;;;5042567;28;20029;-68
2022/06/25 08:57:49;;;;;;;1.75;1.10;;;25.20;56.10;;;;;;5051223;28;20036;-68
2022/06/25 09:00:15;;;;;;;1.80;0.90;;;25.10;56.20;;;;;;5048640;28;20017;-67
2022/06/25 09:02:40;;;;;;;1.40;0.98;;;25.20;56.20;;;;;;5041476;28;20329;-66
2022/06/25 09:05:08;;;;;;;2.00;1.23;;;25.30;55.80;;;;;;5046332;28;20025;-68
2022/06/25 09:07:34;;;;;;;1.50;0.70;;;25.20;55.50;;;;;;5041356;28;20025;-69
2022/06/25 09:10:00;;;;;;;1.15;0.75;;;25.10;55.40;;;;;;5049004;28;20495;-69
2022/06/25 09:12:25;;;;;;;1.05;0.70;;;25.00;55.80;;;;;;5037415;28;20056;-67
2022/06/25 09:14:51;;;;;;;1.00;0.80;;;25.00;56.20;;;;;;5044924;28;20033;-67
2022/06/25 09:17:16;;;;;;;1.02;0.80;;;25.10;56.20;;;;;;5039716;28;20100;-68
2022/06/25 09:19:51;;;;;;;0.77;0.70;;;25.20;56.30;;;;;;5049614;28;20025;-67
2022/06/25 09:22:22;;;;;;;1.13;0.77;;;25.20;56.20;;;;;;5035561;28;20024;-68
2022/06/25 09:24:51;;;;;;;0.70;0.70;;;25.10;56.00;;;;;;5050324;28;20025;-67
2022/06/25 09:27:34;;;;;;;0.90;0.60;;;25.00;56.00;;;;;;5042661;28;20021;-69
2022/06/25 09:30:16;;;;;;;1.17;0.80;;;24.90;56.40;;;;;;5043498;28;20021;-67
2022/06/25 09:32:48;;;;;;;1.88;0.77;;;24.90;56.70;;;;;;5042555;28;20028;-67
2022/06/25 09:35:27;;;;;;;0.60;0.60;;;24.90;56.70;;;;;;5039571;28;20029;-68
2022/06/25 09:37:52;;;;;;;0.90;0.57;;;24.90;56.90;;;;;;5046492;28;20818;-66
2022/06/25 09:40:18;;;;;;;0.93;0.60;;;24.90;57.00;;;;;;5042388;28;20104;-68
2022/06/25 09:42:46;;;;;;;0.90;0.73;;;24.70;56.80;;;;;;5042655;28;20033;-67
2022/06/25 09:45:13;;;;;;;1.33;0.70;;;24.70;57.30;;;;;;5042229;28;20021;-68
2022/06/25 09:47:43;;;;;;;1.65;1.10;;;24.70;57.50;;;;;;5042626;28;20112;-67
2022/06/25 09:50:19;;;;;;;1.40;0.90;;;24.60;57.30;;;;;;5045241;28;20471;-67
2022/06/25 09:52:56;;;;;;;0.82;0.80;;;24.50;57.60;;;;;;5044247;28;20029;-67
2022/06/25 09:55:27;;;;;;;1.65;1.08;;;24.50;57.80;;;;;;5047556;28;20052;-69
2022/06/25 09:57:53;;;;;;;0.73;0.73;;;24.20;57.80;;;;;;5042695;28;20044;-68
2022/06/25 10:00:20;;;;;;;0.70;0.70;;;24.00;58.30;;;;;;5041720;28;20029;-68
2022/06/25 10:02:48;;;;;;;1.42;0.85;;;24.00;58.50;;;;;;5042183;28;20034;-67
2022/06/25 10:05:21;;;;;;;1.48;0.73;;;24.10;58.60;;;;;;5041696;28;20045;-66
2022/06/25 10:08:01;;;;;;;1.48;1.00;;;24.10;58.70;;;;;;5039558;28;20014;-68
2022/06/25 10:10:31;;;;;;;1.83;0.88;;;24.00;58.90;;;;;;5047538;28;20120;-68
2022/06/25 10:12:57;;;;;;;0.70;0.70;;;24.10;59.10;;;;;;5058381;28;20025;-69
2022/06/25 10:15:26;;;;;;;1.70;1.00;;;24.10;59.10;;;;;;5044305;28;20104;-68
2022/06/25 10:17:52;;;;;;;1.75;0.93;;;24.10;59.00;;;;;;5044159;28;20101;-66
2022/06/25 10:20:18;;;;;;;1.35;1.20;;;24.10;59.20;;;;;;5043235;28;20480;-66
2022/06/25 10:22:46;;;;;;;1.63;1.20;;;24.20;59.10;;;;;;5046291;28;20368;-67
2022/06/25 10:25:15;;;;;;;3.33;1.23;;;24.20;59.10;;;;;;5041210;28;20527;-67
2022/06/25 10:27:42;;;;;;;1.55;1.17;;;24.00;59.10;;;;;;5041052;28;20030;-67
2022/06/25 10:30:08;;;;;;;1.92;1.30;;;24.00;59.30;;;;;;5045010;28;20017;-67
2022/06/25 10:32:42;;;;;;;1.80;1.08;;;23.90;58.90;;;;;;5042198;28;20025;-67
2022/06/25 10:35:08;;;;;;;1.73;1.20;;;23.80;59.00;;;;;;5042866;28;20028;-68
2022/06/25 10:38:00;;;;;;;1.00;0.80;;;23.90;59.20;;;;;;5041784;28;20029;-68
2022/06/25 10:40:26;;;;;;;1.63;1.10;;;24.00;59.30;;;;;;5045528;28;20155;-67
2022/06/25 10:43:01;;;;;;;1.75;1.10;;;24.10;58.90;;;;;;5046935;28;20462;-67
2022/06/25 10:45:33;;;;;;;1.02;0.70;;;24.30;58.90;;;;;;5043248;28;20029;-67
2022/06/25 10:48:00;;;;;;;3.05;1.13;;;24.40;58.50;;;;;;5048655;28;20025;-68
2022/06/25 10:50:30;;;;;;;1.05;0.85;;;24.40;58.30;;;;;;5047467;28;20048;-69
2022/06/25 10:53:07;;;;;;;2.92;1.35;;;24.40;58.50;;;;;;5060621;28;20017;-70
2022/06/25 10:55:46;;;;;;;1.30;0.90;;;24.30;58.60;;;;;;5042964;28;20025;-68
2022/06/25 10:58:24;;;;;;;1.48;1.00;;;24.30;58.90;;;;;;5041385;28;20059;-69
2022/06/25 11:01:03;;;;;;;1.75;1.30;;;24.20;59.20;;;;;;5042754;28;20025;-68
2022/06/25 11:03:29;;;;;;;2.83;1.20;;;24.10;59.40;;;;;;5041825;28;20029;-68
2022/06/25 11:06:18;;;;;;;1.15;1.00;;;24.00;59.70;;;;;;5047549;28;20544;-68
2022/06/25 11:08:46;;;;;;;1.02;0.93;;;24.00;60.00;;;;;;5042290;28;20033;-69
2022/06/25 11:11:12;;;;;;;2.08;1.20;;;24.00;60.10;;;;;;5054032;28;20090;-68
2022/06/25 11:13:42;;;;;;;1.92;1.00;;;24.10;60.40;;;;;;5046724;28;20017;-69
2022/06/25 11:16:18;;;;;;;1.73;1.30;;;24.20;60.30;;;;;;5042057;28;20040;-68
2022/06/25 11:18:55;;;;;;;1.52;1.20;;;24.20;59.80;;;;;;5044292;28;20059;-68
2022/06/25 11:21:25;;;;;;;1.83;1.33;;;24.10;59.70;;;;;;5039248;28;20036;-68
2022/06/25 11:23:51;;;;;;;1.55;1.35;;;24.10;59.60;;;;;;5049111;28;20037;-69
2022/06/25 11:29:02;;;;;;;2.00;1.40;;;24.00;59.60;;;;;;5050208;28;20036;-66
2022/06/25 11:31:27;;;;;;;3.55;1.50;;;23.90;59.60;;;;;;5044403;28;20025;-67
2022/06/25 11:33:53;;;;;;;1.73;1.20;;;23.80;59.70;;;;;;5053213;28;20032;-68
2022/06/25 11:36:20;;;;;;;1.98;1.10;;;23.80;59.90;;;;;;5042181;28;20167;-67
2022/06/25 11:38:54;;;;;;;2.50;1.38;;;23.90;59.90;;;;;;5039665;28;20535;-66
2022/06/25 11:41:30;;;;;;;1.40;1.10;;;24.10;59.70;;;;;;5048686;28;20028;-69
2022/06/25 11:44:03;;;;;;;3.20;1.10;;;24.30;59.60;;;;;;5047305;28;20017;-68
2022/06/25 11:46:33;;;;;;;1.25;1.15;;;24.50;59.50;;;;;;5048821;28;20509;-68
2022/06/25 11:48:59;;;;;;;2.42;1.27;;;24.70;59.00;;;;;;5043608;28;20525;-68
2022/06/25 11:51:26;;;;;;;2.13;1.27;;;24.90;58.40;;;;;;5039516;28;20096;-68
2022/06/25 11:53:54;;;;;;;3.60;1.30;;;25.20;58.10;;;;;;5054442;28;20112;-68
2022/06/25 11:56:20;;;;;;;2.40;1.60;;;25.30;57.20;;;;;;5049482;28;20101;-68
2022/06/25 11:58:46;;;;;;;1.83;1.30;;;25.20;56.70;;;;;;5047031;28;20360;-68
2022/06/25 12:01:13;;;;;;;2.58;1.20;;;25.20;57.40;;;;;;5044727;28;20035;-67
2022/06/25 12:03:38;;;;;;;4.28;2.50;;;25.40;57.50;;;;;;5050142;28;20033;-68
2022/06/25 12:06:05;;;;;;;2.28;1.60;;;25.80;57.20;;;;;;5052642;28;20391;-68
2022/06/25 12:08:31;;;;;;;2.00;1.30;;;26.10;56.40;;;;;;5042760;28;20025;-67
2022/06/25 12:10:59;;;;;;;2.95;1.20;;;26.30;55.70;;;;;;5039932;28;20021;-69
2022/06/25 12:13:27;;;;;;;2.45;1.02;;;26.40;55.10;;;;;;5046162;28;20033;-66
2022/06/25 12:16:00;;;;;;;1.98;1.10;;;26.50;55.20;;;;;;5055351;28;20033;-67
2022/06/25 12:18:35;;;;;;;1.55;1.10;;;26.50;54.90;;;;;;5043280;28;20040;-70
2022/06/25 12:21:02;;;;;;;1.83;1.10;;;26.50;54.90;;;;;;5040681;28;20063;-68
2022/06/25 12:23:28;;;;;;;1.83;1.20;;;26.50;54.70;;;;;;5060246;28;20029;-67
2022/06/25 12:25:53;;;;;;;1.38;1.00;;;26.40;54.50;;;;;;5041028;28;20032;-68
2022/06/25 12:28:36;;;;;;;1.15;0.98;;;26.40;54.60;;;;;;5044460;28;20029;-68
2022/06/25 12:31:11;;;;;;;1.48;1.10;;;26.50;53.70;;;;;;5043189;28;20029;-69
2022/06/25 12:33:37;;;;;;;2.22;1.55;;;26.30;54.00;;;;;;5046285;28;20705;-68
2022/06/25 12:36:14;;;;;;;1.85;1.25;;;26.30;54.00;;;;;;5043155;28;20484;-67
2022/06/25 12:38:39;;;;;;;1.58;1.20;;;26.30;54.10;;;;;;5044973;28;20033;-68
2022/06/25 12:41:05;;;;;;;2.45;1.50;;;26.40;54.20;;;;;;5037958;28;20039;-68
2022/06/25 12:43:44;;;;;;;1.10;1.00;;;26.40;54.00;;;;;;5049229;28;20148;-67
2022/06/25 12:46:09;;;;;;;2.03;1.02;;;26.30;54.50;;;;;;5039559;28;20090;-69
2022/06/25 12:48:35;;;;;;;1.90;0.90;;;26.40;54.60;;;;;;5045596;28;20021;-68
2022/06/25 12:51:11;;;;;;;1.27;0.80;;;26.60;54.70;;;;;;5045331;28;20070;-67
2022/06/25 12:53:38;;;;;;;2.45;1.20;;;26.70;54.70;;;;;;5062210;28;20610;-67
2022/06/25 12:56:04;;;;;;;1.63;1.20;;;26.60;54.50;;;;;;5042288;28;20028;-69
2022/06/25 12:58:40;;;;;;;2.80;1.15;;;26.50;54.40;;;;;;5049152;28;20033;-68
2022/06/25 13:01:19;;;;;;;1.75;1.30;;;26.60;54.20;;;;;;5043905;28;20059;-68